createdAt,value
2019-03-22T00:00:28.760Z,58.77
2019-03-22T00:03:00.654Z,62.67
2019-03-22T00:05:30.871Z,63.00
2019-03-22T00:08:00.352Z,64.70
2019-03-22T00:10:29.814Z,64.60
2019-03-22T00:12:59.471Z,64.83
2019-03-22T00:15:29.011Z,61.63
2019-03-22T00:17:58.717Z,65.00
2019-03-22T00:20:28.137Z,68.00
2019-03-22T00:22:57.573Z,69.53
2019-03-22T00:25:26.997Z,68.30
2019-03-22T00:27:56.431Z,71.23
2019-03-22T00:30:28.824Z,66.33
2019-03-22T00:32:58.169Z,67.00
2019-03-22T00:35:28.597Z,70.03
2019-03-22T00:37:59.748Z,66.57
2019-03-22T00:40:31.654Z,68.70
2019-03-22T00:43:03.075Z,67.60
2019-03-22T00:45:32.790Z,72.23
2019-03-22T00:48:03.294Z,67.67
2019-03-22T00:50:33.303Z,71.27
2019-03-22T00:53:05.673Z,75.53
2019-03-22T00:55:35.736Z,77.37
2019-03-22T00:58:06.314Z,71.33
2019-03-22T01:00:36.017Z,72.57
2019-03-22T01:03:06.674Z,69.37
2019-03-22T01:05:36.090Z,71.10
2019-03-22T01:08:05.546Z,80.70
2019-03-22T01:10:35.076Z,78.17
2019-03-22T01:13:04.796Z,84.03
2019-03-22T01:15:34.382Z,79.63
2019-03-22T01:18:04.426Z,83.43
2019-03-22T01:20:34.299Z,76.93
2019-03-22T01:23:03.815Z,81.10
2019-03-22T01:25:33.197Z,78.03
2019-03-22T01:28:02.748Z,83.37
2019-03-22T01:30:32.189Z,84.20
2019-03-22T01:33:02.435Z,90.80
2019-03-22T01:35:32.065Z,88.80
2019-03-22T01:38:01.521Z,89.53
2019-03-22T01:40:31.217Z,92.00
2019-03-22T01:43:04.178Z,88.43
2019-03-22T01:45:34.597Z,90.27
2019-03-22T01:48:03.935Z,88.27
2019-03-22T01:50:33.396Z,85.87
2019-03-22T01:53:07.077Z,88.53
2019-03-22T01:55:36.484Z,87.93
2019-03-22T01:58:09.472Z,88.23
2019-03-22T02:00:39.060Z,86.17
2019-03-22T02:03:12.787Z,84.33
2019-03-22T02:05:42.565Z,84.97
2019-03-22T02:08:12.284Z,81.10
2019-03-22T02:10:41.804Z,88.10
2019-03-22T02:13:11.436Z,84.10
2019-03-22T02:15:45.911Z,89.03
2019-03-22T02:18:15.367Z,97.23
2019-03-22T02:20:44.809Z,95.00
2019-03-22T02:23:14.983Z,99.30
2019-03-22T02:25:44.677Z,97.20
2019-03-22T02:28:15.055Z,97.13
2019-03-22T02:30:44.471Z,99.37
2019-03-22T02:33:13.835Z,104.47
2019-03-22T02:35:44.323Z,103.97
2019-03-22T02:38:14.622Z,105.60
2019-03-22T02:40:44.054Z,103.13
2019-03-22T02:43:16.821Z,104.47
2019-03-22T02:45:46.355Z,106.27
2019-03-22T02:48:15.853Z,108.70
2019-03-22T02:50:45.262Z,107.53
2019-03-22T02:53:15.040Z,109.60
2019-03-22T02:55:44.567Z,108.50
2019-03-22T02:58:20.404Z,116.73
2019-03-22T03:00:45.448Z,107.73
2019-03-22T03:03:15.723Z,114.93
2019-03-22T03:05:45.136Z,109.90
2019-03-22T03:08:15.118Z,128.77
2019-03-22T03:10:45.156Z,123.80
2019-03-22T03:13:14.602Z,121.97
2019-03-22T03:15:44.883Z,126.60
2019-03-22T03:18:14.704Z,128.90
2019-03-22T03:20:44.319Z,130.07
2019-03-22T03:23:13.905Z,126.87
2019-03-22T03:25:43.785Z,124.47
2019-03-22T03:28:13.573Z,119.90
2019-03-22T03:30:43.047Z,121.13
2019-03-22T03:33:15.562Z,121.13
2019-03-22T03:35:45.157Z,126.50
2019-03-22T03:38:14.839Z,132.90
2019-03-22T03:40:44.376Z,122.77
2019-03-22T03:43:14.395Z,132.93
2019-03-22T03:45:44.050Z,126.50
2019-03-22T03:48:13.550Z,135.53
2019-03-22T03:50:43.042Z,124.87
2019-03-22T03:53:12.479Z,137.50
2019-03-22T03:55:41.918Z,130.07
2019-03-22T03:58:11.352Z,131.57
2019-03-22T04:00:41.147Z,126.83
2019-03-22T04:03:10.951Z,122.53
2019-03-22T04:05:40.719Z,123.27
2019-03-22T04:08:10.087Z,126.73
2019-03-22T04:10:39.936Z,118.37
2019-03-22T04:13:10.177Z,117.73
2019-03-22T04:15:39.863Z,121.13
2019-03-22T04:18:09.338Z,131.50
2019-03-22T04:20:41.313Z,121.60
2019-03-22T04:23:13.000Z,128.70
2019-03-22T04:25:42.741Z,130.83
2019-03-22T04:28:15.348Z,141.50
2019-03-22T04:30:45.113Z,149.27
2019-03-22T04:33:14.723Z,144.93
2019-03-22T04:35:44.455Z,139.80
2019-03-22T04:38:14.149Z,146.37
2019-03-22T04:40:45.064Z,157.60
2019-03-22T04:43:17.915Z,148.33
2019-03-22T04:45:47.938Z,165.13
2019-03-22T04:48:21.267Z,173.07
2019-03-22T04:50:52.807Z,163.83
2019-03-22T04:53:24.521Z,159.20
2019-03-22T04:55:56.923Z,150.73
2019-03-22T04:58:27.737Z,140.60
2019-03-22T05:00:59.107Z,128.27
2019-03-22T05:03:29.128Z,159.67
2019-03-22T05:06:01.776Z,176.27
2019-03-22T05:08:33.572Z,218.67
2019-03-22T05:11:05.170Z,197.67
2019-03-22T05:13:36.547Z,197.50
2019-03-22T05:16:09.706Z,190.00
2019-03-22T05:18:44.096Z,236.90
2019-03-22T05:21:25.461Z,241.13
2019-03-22T05:24:00.686Z,267.97
2019-03-22T05:26:33.120Z,170.30
2019-03-22T05:29:03.204Z,193.07
2019-03-22T05:31:57.742Z,204.07
2019-03-22T05:34:27.547Z,221.43
2019-03-22T05:36:58.393Z,199.13
2019-03-22T05:39:28.537Z,271.40
2019-03-22T05:41:58.165Z,275.70
2019-03-22T05:44:27.766Z,175.33
2019-03-22T05:46:57.485Z,227.60
2019-03-22T05:49:27.298Z,209.87
2019-03-22T05:51:57.028Z,334.03
2019-03-22T05:54:26.814Z,201.57
2019-03-22T05:56:57.049Z,309.37
2019-03-22T05:59:26.483Z,197.00
2019-03-22T06:01:55.937Z,232.23
2019-03-22T06:04:25.375Z,286.20
2019-03-22T06:06:55.521Z,398.03
2019-03-22T06:09:24.910Z,260.00
2019-03-22T06:11:55.105Z,291.90
2019-03-22T06:14:25.291Z,460.17
2019-03-22T06:16:56.109Z,383.97
2019-03-22T06:19:26.831Z,257.43
2019-03-22T06:21:56.317Z,329.13
2019-03-22T06:24:26.595Z,379.23
2019-03-22T06:26:56.407Z,253.67
2019-03-22T06:29:26.310Z,359.63
2019-03-22T06:31:55.734Z,386.87
2019-03-22T06:34:25.476Z,317.70
2019-03-22T06:36:55.149Z,387.67
2019-03-22T06:39:24.705Z,394.00
2019-03-22T06:41:54.527Z,348.07
2019-03-22T06:44:23.999Z,226.07
2019-03-22T06:46:54.122Z,394.77
2019-03-22T06:49:23.883Z,243.13
2019-03-22T06:51:56.538Z,189.93
2019-03-22T06:54:31.831Z,163.93
2019-03-22T06:56:58.369Z,217.00
2019-03-22T07:02:02.844Z,205.23
2019-03-22T07:07:12.863Z,214.90
2019-03-22T07:09:50.246Z,209.27
2019-03-22T07:12:23.938Z,187.33
2019-03-22T07:14:53.743Z,182.17
2019-03-22T07:17:24.765Z,136.17
2019-03-22T07:19:55.694Z,188.63
2019-03-22T07:22:25.211Z,198.13
2019-03-22T07:24:54.804Z,137.23
2019-03-22T07:27:25.182Z,145.03
2019-03-22T07:29:58.466Z,154.63
2019-03-22T07:32:28.577Z,160.20
2019-03-22T07:34:59.123Z,139.87
2019-03-22T07:37:28.867Z,128.83
2019-03-22T07:40:00.376Z,139.53
2019-03-22T07:42:30.719Z,115.03
2019-03-22T07:45:01.023Z,115.53
2019-03-22T07:47:30.451Z,98.43
2019-03-22T07:50:00.096Z,102.83
2019-03-22T07:52:32.959Z,95.40
2019-03-22T07:55:02.787Z,89.57
2019-03-22T07:57:32.517Z,81.20
2019-03-22T08:00:03.197Z,82.00
2019-03-22T08:02:33.029Z,89.57
2019-03-22T08:05:03.560Z,76.73
2019-03-22T08:07:32.934Z,81.83
2019-03-22T08:10:06.379Z,78.27
2019-03-22T08:12:36.217Z,68.77
2019-03-22T08:15:08.810Z,74.30
2019-03-22T08:17:38.606Z,79.47
2019-03-22T08:20:08.306Z,83.17
2019-03-22T08:22:38.224Z,76.93
2019-03-22T08:25:08.513Z,84.90
2019-03-22T08:27:41.182Z,74.87
2019-03-22T08:30:10.646Z,70.90
2019-03-22T08:32:40.924Z,74.80
2019-03-22T08:35:10.951Z,76.23
2019-03-22T08:37:51.769Z,76.37
2019-03-22T08:40:15.395Z,71.30
2019-03-22T08:42:45.888Z,71.10
2019-03-22T08:45:15.430Z,77.43
2019-03-22T08:47:44.931Z,75.47
2019-03-22T08:50:16.670Z,82.87
2019-03-22T08:52:46.370Z,81.97
2019-03-22T08:55:15.928Z,77.53
2019-03-22T08:57:45.432Z,76.77
2019-03-22T09:00:15.821Z,84.03
2019-03-22T09:02:46.373Z,83.77
2019-03-22T09:05:15.912Z,77.90
2019-03-22T09:07:45.911Z,83.37
2019-03-22T09:10:15.857Z,80.30
2019-03-22T09:12:45.273Z,80.40
2019-03-22T09:15:15.224Z,84.40
2019-03-22T09:17:44.998Z,83.57
2019-03-22T09:20:14.456Z,83.77
2019-03-22T09:22:43.875Z,80.87
2019-03-22T09:25:13.373Z,82.63
2019-03-22T09:27:42.853Z,79.93
2019-03-22T09:30:12.618Z,81.10
2019-03-22T09:32:44.496Z,81.70
2019-03-22T09:35:14.241Z,84.63
2019-03-22T09:37:44.311Z,82.43
2019-03-22T09:40:14.068Z,83.90
2019-03-22T09:42:48.040Z,84.50
2019-03-22T09:45:17.978Z,77.00
2019-03-22T09:47:47.907Z,77.87
2019-03-22T09:50:18.183Z,78.43
2019-03-22T09:52:47.944Z,82.03
2019-03-22T09:55:17.415Z,82.90
2019-03-22T09:57:49.325Z,84.97
2019-03-22T10:00:30.777Z,83.13
2019-03-22T10:03:00.793Z,80.85
2019-03-22T10:05:31.516Z,82.53
2019-03-22T10:08:04.137Z,81.97
2019-03-22T10:10:35.485Z,83.80
2019-03-22T10:13:05.602Z,80.60
2019-03-22T10:15:35.228Z,79.72
2019-03-22T10:18:05.824Z,85.17
2019-03-22T10:20:38.663Z,88.27
2019-03-22T10:23:08.703Z,83.72
2019-03-22T10:25:39.758Z,82.78
2019-03-22T10:28:09.844Z,79.60
2019-03-22T10:30:39.710Z,75.90
2019-03-22T10:33:21.804Z,87.65
2019-03-22T10:35:40.244Z,80.95
2019-03-22T10:40:45.481Z,80.30
2019-03-22T10:43:16.041Z,74.72
2019-03-22T10:45:45.525Z,80.65
2019-03-22T10:48:16.530Z,84.62
2019-03-22T10:50:46.469Z,81.35
2019-03-22T10:53:16.633Z,76.22
2019-03-22T10:55:46.956Z,78.87
2019-03-22T10:58:21.193Z,80.35
2019-03-22T11:00:49.232Z,78.42
2019-03-22T11:03:19.664Z,82.25
2019-03-22T11:05:49.499Z,75.22
2019-03-22T11:08:21.688Z,78.70
2019-03-22T11:10:51.950Z,80.40
2019-03-22T11:13:22.642Z,76.00
2019-03-22T11:15:52.970Z,75.30
2019-03-22T11:18:22.625Z,78.97
2019-03-22T11:20:52.112Z,76.65
2019-03-22T11:23:21.884Z,79.62
2019-03-22T11:26:03.882Z,76.22
2019-03-22T11:28:28.761Z,78.52
2019-03-22T11:31:04.603Z,82.02
2019-03-22T11:33:35.687Z,79.77
2019-03-22T11:36:08.262Z,82.22
2019-03-22T11:38:38.106Z,79.20
2019-03-22T11:41:08.753Z,81.85
2019-03-22T11:43:38.880Z,82.25
2019-03-22T11:46:08.338Z,85.57
2019-03-22T11:48:37.895Z,81.40
2019-03-22T11:51:07.598Z,87.27
2019-03-22T11:53:40.472Z,81.45
2019-03-22T11:56:13.617Z,85.75
2019-03-22T11:58:44.119Z,86.53
2019-03-22T12:01:19.634Z,88.55
2019-03-22T12:03:50.630Z,88.50
2019-03-22T12:06:23.971Z,89.03
2019-03-22T12:08:54.506Z,88.78
2019-03-22T12:11:25.742Z,91.47
2019-03-22T12:13:55.771Z,88.95
2019-03-22T12:16:26.624Z,93.95
2019-03-22T12:18:58.531Z,90.72
2019-03-22T12:21:29.761Z,85.40
2019-03-22T12:23:59.638Z,90.03
2019-03-22T12:26:32.052Z,91.63
2019-03-22T12:29:02.718Z,86.32
2019-03-22T12:31:33.477Z,85.97
2019-03-22T12:34:04.330Z,84.17
2019-03-22T12:36:34.865Z,83.00
2019-03-22T12:39:08.045Z,85.75
2019-03-22T12:41:37.565Z,86.28
2019-03-22T12:44:07.136Z,85.22
2019-03-22T12:46:40.880Z,83.72
2019-03-22T12:49:11.321Z,80.30
2019-03-22T12:51:42.324Z,79.67
2019-03-22T12:54:12.632Z,78.60
2019-03-22T12:56:42.910Z,83.92
2019-03-22T12:59:13.949Z,74.32
2019-03-22T13:01:44.337Z,77.17
2019-03-22T13:04:13.937Z,75.57
2019-03-22T13:06:43.745Z,78.75
2019-03-22T13:09:14.169Z,71.55
2019-03-22T13:11:43.938Z,71.90
2019-03-22T13:14:13.479Z,73.15
2019-03-22T13:16:44.132Z,71.95
2019-03-22T13:19:13.766Z,67.47
2019-03-22T13:21:44.706Z,73.67
2019-03-22T13:24:16.692Z,71.07
2019-03-22T13:26:46.572Z,67.82
2019-03-22T13:29:16.406Z,69.82
2019-03-22T13:31:49.600Z,66.57
2019-03-22T13:34:19.107Z,71.62
2019-03-22T13:36:50.318Z,69.32
2019-03-22T13:39:20.419Z,69.27
2019-03-22T13:41:53.535Z,71.47
2019-03-22T13:44:23.687Z,67.78
2019-03-22T13:46:53.663Z,67.65
2019-03-22T13:49:23.735Z,69.37
2019-03-22T13:51:53.897Z,64.12
2019-03-22T13:54:24.202Z,69.55
2019-03-22T13:59:30.117Z,66.65
2019-03-22T14:02:04.454Z,67.75
2019-03-22T14:04:34.586Z,63.38
2019-03-22T14:07:07.402Z,61.98
2019-03-22T14:09:37.595Z,62.93
2019-03-22T14:12:37.283Z,60.88
2019-03-22T14:15:11.527Z,63.20
2019-03-22T14:17:42.179Z,63.25
2019-03-22T14:20:12.942Z,61.40
2019-03-22T14:22:43.355Z,59.48
2019-03-22T14:25:34.885Z,59.20
2019-03-22T14:28:07.777Z,61.25
2019-03-22T14:30:37.883Z,65.83
2019-03-22T14:33:13.221Z,58.48
2019-03-22T14:35:39.974Z,60.38
2019-03-22T14:38:09.975Z,55.98
2019-03-22T14:40:40.828Z,58.00
2019-03-22T14:43:14.432Z,56.92
2019-03-22T14:45:45.993Z,59.93
2019-03-22T14:48:27.806Z,53.80
2019-03-22T14:51:01.672Z,55.03
2019-03-22T14:53:32.230Z,57.43
2019-03-22T14:56:02.850Z,57.55
2019-03-22T14:58:39.778Z,53.92
2019-03-22T15:01:10.394Z,53.42
2019-03-22T15:03:40.983Z,57.67
2019-03-22T15:06:12.638Z,55.15
2019-03-22T15:08:44.197Z,57.15
2019-03-22T15:11:15.048Z,51.40
2019-03-22T15:13:59.266Z,54.60
2019-03-22T15:16:57.975Z,55.45
2019-03-22T15:19:46.118Z,56.92
2019-03-22T15:22:44.525Z,54.27
2019-03-22T15:25:27.521Z,56.73
2019-03-22T15:28:16.416Z,59.30
2019-03-22T15:31:23.013Z,60.33
2019-03-22T15:34:15.016Z,64.20
2019-03-22T15:37:15.424Z,68.77
2019-03-22T15:40:01.606Z,71.05
2019-03-22T15:42:31.935Z,70.47
2019-03-22T15:45:05.578Z,69.87
2019-03-22T15:47:37.068Z,70.47
2019-03-22T15:50:08.669Z,68.42
2019-03-22T15:52:41.875Z,65.97
2019-03-22T15:55:12.789Z,67.78
2019-03-22T15:57:43.348Z,74.12
2019-03-22T16:00:16.586Z,70.22
2019-03-22T16:02:46.910Z,75.05
2019-03-22T16:05:17.234Z,78.57
2019-03-22T16:07:48.765Z,79.62
2019-03-22T16:10:18.812Z,80.32
2019-03-22T16:12:51.793Z,80.87
2019-03-22T16:15:21.951Z,86.53
2019-03-22T16:17:51.765Z,87.02
2019-03-22T16:20:21.470Z,88.78
2019-03-22T16:22:51.027Z,83.95
2019-03-22T16:25:20.584Z,89.60
2019-03-22T16:27:50.913Z,93.30
2019-03-22T16:30:21.522Z,101.95
2019-03-22T16:32:51.057Z,103.30
2019-03-22T16:35:20.535Z,104.13
2019-03-22T16:37:50.036Z,103.63
2019-03-22T16:40:24.169Z,105.47
2019-03-22T16:42:52.851Z,104.80
2019-03-22T16:45:39.718Z,115.47
2019-03-22T16:48:10.032Z,122.50
2019-03-22T16:50:40.504Z,126.70
2019-03-22T16:53:13.159Z,128.00
2019-03-22T16:55:42.453Z,121.90
2019-03-22T16:58:12.082Z,128.10
2019-03-22T17:00:41.871Z,153.37
2019-03-22T17:03:11.573Z,155.17
2019-03-22T17:05:41.502Z,143.13
2019-03-22T17:08:13.053Z,169.30
2019-03-22T17:10:43.700Z,151.17
2019-03-22T17:13:13.153Z,183.37
2019-03-22T17:15:43.051Z,151.80
2019-03-22T17:18:15.481Z,173.40
2019-03-22T17:20:45.769Z,189.23
2019-03-22T17:23:16.423Z,164.00
2019-03-22T17:25:47.048Z,208.00
2019-03-22T17:28:16.664Z,166.73
2019-03-22T17:30:46.206Z,144.43
2019-03-22T17:33:17.493Z,157.03
2019-03-22T17:35:46.977Z,164.40
2019-03-22T17:38:16.357Z,155.30
2019-03-22T17:40:46.172Z,141.17
2019-03-22T17:43:18.482Z,130.97
2019-03-22T17:45:51.169Z,126.10
2019-03-22T17:48:20.714Z,119.57
2019-03-22T17:50:50.238Z,121.37
2019-03-22T17:53:21.082Z,121.80
2019-03-22T17:55:51.739Z,128.33
2019-03-22T17:58:21.247Z,132.77
2019-03-22T18:00:51.702Z,133.27
2019-03-22T18:03:21.700Z,129.43
2019-03-22T18:05:51.402Z,152.90
2019-03-22T18:08:21.002Z,154.63
2019-03-22T18:10:52.892Z,143.03
2019-03-22T18:13:22.518Z,158.00
2019-03-22T18:15:51.988Z,168.77
2019-03-22T18:18:22.081Z,186.73
2019-03-22T18:20:51.715Z,169.00
2019-03-22T18:23:21.312Z,177.50
2019-03-22T18:25:51.206Z,178.47
2019-03-22T18:28:20.680Z,182.80
2019-03-22T18:30:50.474Z,190.07
2019-03-22T18:33:20.447Z,208.93
2019-03-22T18:35:50.361Z,214.00
2019-03-22T18:38:21.145Z,265.97
2019-03-22T18:40:50.661Z,142.23
2019-03-22T18:43:21.241Z,215.13
2019-03-22T18:45:52.538Z,219.47
2019-03-22T18:48:22.164Z,234.33
2019-03-22T18:50:56.716Z,226.97
2019-03-22T18:53:24.080Z,256.80
2019-03-22T18:55:53.568Z,255.23
2019-03-22T18:58:23.816Z,251.73
2019-03-22T19:00:53.712Z,242.87
2019-03-22T19:03:24.489Z,234.97
2019-03-22T19:05:54.763Z,237.10
2019-03-22T19:08:24.517Z,232.27
2019-03-22T19:10:54.697Z,238.53
2019-03-22T19:13:30.628Z,227.00
2019-03-22T19:15:55.660Z,240.10
2019-03-22T19:18:28.320Z,222.73
2019-03-22T19:21:00.872Z,236.80
2019-03-22T19:23:30.677Z,211.00
2019-03-22T19:26:03.815Z,222.57
2019-03-22T19:28:33.421Z,215.40
2019-03-22T19:31:09.042Z,220.03
2019-03-22T19:33:38.526Z,238.60
2019-03-22T19:36:08.108Z,244.57
2019-03-22T19:38:38.589Z,236.00
2019-03-22T19:41:09.773Z,243.03
2019-03-22T19:43:39.978Z,227.23
2019-03-22T19:46:10.081Z,231.63
2019-03-22T19:48:41.788Z,222.73
2019-03-22T19:51:11.080Z,214.53
2019-03-22T19:53:40.961Z,233.23
2019-03-22T19:56:12.837Z,237.37
2019-03-22T19:58:42.585Z,232.23
2019-03-22T20:01:15.533Z,237.00
2019-03-22T20:03:45.182Z,229.10
2019-03-22T20:06:25.015Z,236.43
2019-03-22T20:08:54.507Z,246.57
2019-03-22T20:11:24.840Z,216.87
2019-03-22T20:13:54.698Z,227.87
2019-03-22T20:16:24.142Z,224.40
2019-03-22T20:18:54.925Z,226.70
2019-03-22T20:24:02.852Z,207.03
2019-03-22T20:26:32.992Z,225.77
2019-03-22T20:29:03.372Z,220.03
2019-03-22T20:31:36.209Z,225.13
2019-03-22T20:34:07.108Z,211.60
2019-03-22T20:36:37.765Z,229.73
2019-03-22T20:39:11.439Z,231.33
2019-03-22T20:41:40.909Z,222.93
2019-03-22T20:44:10.772Z,214.80
2019-03-22T20:46:40.249Z,195.93
2019-03-22T20:49:10.494Z,205.80
2019-03-22T20:51:43.021Z,202.90
2019-03-22T20:54:12.482Z,174.70
2019-03-22T20:56:45.029Z,164.67
2019-03-22T20:59:14.741Z,179.60
2019-03-22T21:01:44.405Z,164.90
2019-03-22T21:04:16.938Z,147.03
2019-03-22T21:06:46.350Z,153.33
2019-03-22T21:09:15.980Z,160.43
2019-03-22T21:11:50.766Z,148.97
2019-03-22T21:14:20.259Z,139.93
2019-03-22T21:16:50.262Z,152.50
2019-03-22T21:19:20.154Z,141.30
2019-03-22T21:21:50.193Z,148.30
2019-03-22T21:24:19.931Z,130.50
2019-03-22T21:26:50.031Z,130.23
2019-03-22T21:29:21.773Z,128.33
2019-03-22T21:31:51.246Z,128.10
2019-03-22T21:34:21.908Z,137.80
2019-03-22T21:36:53.236Z,129.13
2019-03-22T21:39:23.226Z,135.67
2019-03-22T21:41:52.724Z,121.27
2019-03-22T21:44:27.529Z,126.20
2019-03-22T21:46:57.377Z,117.60
2019-03-22T21:49:27.399Z,112.13
2019-03-22T21:51:57.324Z,125.90
2019-03-22T21:54:28.124Z,118.83
2019-03-22T21:56:57.709Z,113.83
2019-03-22T21:59:27.756Z,110.20
2019-03-22T22:01:57.311Z,110.97
2019-03-22T22:04:27.184Z,94.80
2019-03-22T22:06:56.924Z,93.90
2019-03-22T22:09:26.749Z,95.13
2019-03-22T22:11:57.130Z,93.40
2019-03-22T22:14:29.071Z,100.27
2019-03-22T22:16:58.911Z,96.60
2019-03-22T22:19:29.243Z,96.13
2019-03-22T22:21:59.565Z,98.30
2019-03-22T22:24:29.445Z,96.43
2019-03-22T22:26:59.267Z,94.83
2019-03-22T22:29:28.869Z,97.30
2019-03-22T22:32:03.761Z,92.20
2019-03-22T22:34:33.199Z,91.30
2019-03-22T22:37:02.686Z,99.30
2019-03-22T22:39:32.324Z,87.23
2019-03-22T22:42:02.118Z,87.77
2019-03-22T22:44:31.478Z,95.77
2019-03-22T22:47:02.028Z,90.43
2019-03-22T22:49:35.091Z,91.93
2019-03-22T22:52:05.943Z,89.73
2019-03-22T22:54:35.365Z,86.83
2019-03-22T22:57:04.809Z,88.70
2019-03-22T22:59:36.027Z,84.77
2019-03-22T23:02:05.853Z,80.13
2019-03-22T23:04:35.385Z,82.50
2019-03-22T23:07:09.349Z,82.73
2019-03-22T23:09:39.188Z,82.13
2019-03-22T23:12:08.797Z,83.77
2019-03-22T23:14:38.231Z,77.87
2019-03-22T23:17:07.821Z,81.20
2019-03-22T23:19:37.334Z,79.47
2019-03-22T23:22:06.938Z,76.03
2019-03-22T23:24:37.351Z,75.43
2019-03-22T23:27:09.098Z,79.50
2019-03-22T23:29:38.476Z,77.07
2019-03-22T23:32:08.293Z,80.90
2019-03-22T23:34:45.922Z,78.57
2019-03-22T23:37:16.089Z,77.13
2019-03-22T23:39:46.348Z,74.30
2019-03-22T23:42:16.787Z,80.33
2019-03-22T23:44:46.246Z,81.43
2019-03-22T23:47:15.852Z,77.27
2019-03-22T23:49:48.468Z,82.37
2019-03-22T23:52:17.834Z,74.17
2019-03-22T23:54:47.281Z,81.10
2019-03-22T23:57:19.091Z,77.93
2019-03-22T23:59:49.390Z,75.70
